createdAt,value
2022-09-26T00:00:07.604Z,58.94
2022-09-26T00:01:03.183Z,59.14
2022-09-26T00:01:58.740Z,59.14
2022-09-26T00:02:54.270Z,59.04
2022-09-26T00:03:49.797Z,59.23
2022-09-26T00:04:45.327Z,58.84
2022-09-26T00:05:40.873Z,59.14
2022-09-26T00:06:36.426Z,58.84
2022-09-26T00:07:21.092Z,59.23
2022-09-26T00:08:16.640Z,59.04
2022-09-26T00:09:12.334Z,59.23
2022-09-26T00:10:07.750Z,59.14
2022-09-26T00:11:03.294Z,59.23
2022-09-26T00:11:58.832Z,58.94
2022-09-26T00:12:54.426Z,58.84
2022-09-26T00:13:39.084Z,58.84
2022-09-26T00:14:34.645Z,58.94
2022-09-26T00:15:30.186Z,59.23
2022-09-26T00:16:25.815Z,59.14
2022-09-26T00:17:21.310Z,58.84
2022-09-26T00:18:16.849Z,59.04
2022-09-26T00:19:01.531Z,59.04
2022-09-26T00:19:57.116Z,59.04
2022-09-26T00:20:52.660Z,58.94
2022-09-26T00:21:48.211Z,59.23
2022-09-26T00:22:43.759Z,59.14
2022-09-26T00:23:28.417Z,59.14
2022-09-26T00:24:23.975Z,59.14
2022-09-26T00:25:19.521Z,59.14
2022-09-26T00:26:15.080Z,58.84
2022-09-26T00:27:10.621Z,59.14
2022-09-26T00:28:06.169Z,58.84
2022-09-26T00:29:01.714Z,59.23
2022-09-26T00:29:57.262Z,59.23
2022-09-26T00:30:52.849Z,59.04
2022-09-26T00:31:48.345Z,59.04
2022-09-26T00:32:43.924Z,59.14
2022-09-26T00:33:39.455Z,59.23
2022-09-26T00:34:35.012Z,59.04
2022-09-26T00:35:30.557Z,59.14
2022-09-26T00:36:36.908Z,59.23
2022-09-26T00:37:21.666Z,59.23
2022-09-26T00:38:17.203Z,58.94
2022-09-26T00:39:12.827Z,59.23
2022-09-26T00:40:08.289Z,59.23
2022-09-26T00:41:03.853Z,59.14
2022-09-26T00:41:59.410Z,59.23
2022-09-26T00:42:54.961Z,58.84
2022-09-26T00:43:50.511Z,59.04
2022-09-26T00:44:46.084Z,59.14
2022-09-26T00:45:41.691Z,59.23
2022-09-26T00:46:37.150Z,59.14
2022-09-26T00:47:32.692Z,59.64
2022-09-26T00:48:28.249Z,58.94
2022-09-26T00:49:23.767Z,59.34
2022-09-26T00:50:19.329Z,59.14
2022-09-26T00:51:14.881Z,59.27
2022-09-26T00:52:10.436Z,59.04
2022-09-26T00:53:05.982Z,59.14
2022-09-26T00:54:01.529Z,58.84
2022-09-26T00:54:57.076Z,59.14
2022-09-26T00:55:52.626Z,58.94
2022-09-26T00:56:48.175Z,58.84
2022-09-26T00:57:43.718Z,58.84
2022-09-26T00:58:39.280Z,59.14
2022-09-26T00:59:23.950Z,59.14
2022-09-26T01:00:19.498Z,59.23
2022-09-26T01:01:15.205Z,58.94
2022-09-26T01:02:10.656Z,58.84
2022-09-26T01:03:06.146Z,58.84
2022-09-26T01:04:01.821Z,59.17
2022-09-26T01:04:57.254Z,59.17
2022-09-26T01:05:52.814Z,59.04
2022-09-26T01:06:48.394Z,59.04
2022-09-26T01:07:33.058Z,58.94
2022-09-26T01:08:28.603Z,59.17
2022-09-26T01:09:24.152Z,58.86
2022-09-26T01:10:19.727Z,59.06
2022-09-26T01:11:17.081Z,59.14
2022-09-26T01:12:10.804Z,59.23
2022-09-26T01:13:06.357Z,58.86
2022-09-26T01:13:51.045Z,59.14
2022-09-26T01:14:46.581Z,59.14
2022-09-26T01:15:42.117Z,59.04
2022-09-26T01:16:37.714Z,59.04
2022-09-26T01:17:33.214Z,59.06
2022-09-26T01:18:17.873Z,59.17
2022-09-26T01:19:13.590Z,59.04
2022-09-26T01:20:08.969Z,58.84
2022-09-26T01:21:04.522Z,59.14
2022-09-26T01:22:00.061Z,58.97
2022-09-26T01:22:55.610Z,58.94
2022-09-26T01:23:51.160Z,59.14
2022-09-26T01:24:46.759Z,59.27
2022-09-26T01:25:31.429Z,59.14
2022-09-26T01:26:26.967Z,59.34
2022-09-26T01:27:22.518Z,58.84
2022-09-26T01:28:07.185Z,59.23
2022-09-26T01:29:02.723Z,59.04
2022-09-26T01:29:58.297Z,58.84
2022-09-26T01:30:43.058Z,59.17
2022-09-26T01:31:38.532Z,59.04
2022-09-26T01:32:34.086Z,58.94
2022-09-26T01:33:29.627Z,59.27
2022-09-26T01:34:25.191Z,58.94
2022-09-26T01:35:09.844Z,59.17
2022-09-26T01:36:05.386Z,59.14
2022-09-26T01:37:00.931Z,58.84
2022-09-26T01:37:56.485Z,59.27
2022-09-26T01:38:52.072Z,59.04
2022-09-26T01:39:47.621Z,59.23
2022-09-26T01:40:43.228Z,58.73
2022-09-26T01:41:38.721Z,59.53
2022-09-26T01:42:34.251Z,59.53
2022-09-26T01:43:29.802Z,59.53
2022-09-26T01:44:25.359Z,59.64
2022-09-26T01:45:20.905Z,59.56
2022-09-26T01:46:16.565Z,59.77
2022-09-26T01:47:11.996Z,59.83
2022-09-26T01:48:07.533Z,59.53
2022-09-26T01:49:03.077Z,59.86
2022-09-26T01:49:47.837Z,59.77
2022-09-26T01:50:43.309Z,59.23
2022-09-26T01:51:38.861Z,59.77
2022-09-26T01:52:34.420Z,59.97
2022-09-26T01:53:29.964Z,59.77
2022-09-26T01:54:25.527Z,59.66
2022-09-26T01:55:21.080Z,59.53
2022-09-26T01:56:16.623Z,59.66
2022-09-26T01:57:12.176Z,59.47
2022-09-26T01:58:07.721Z,59.17
2022-09-26T01:58:52.395Z,59.23
2022-09-26T01:59:37.073Z,59.44
2022-09-26T02:00:32.607Z,59.86
2022-09-26T02:01:28.230Z,59.44
2022-09-26T02:02:23.791Z,59.27
2022-09-26T02:03:19.247Z,59.27
2022-09-26T02:04:14.784Z,59.44
2022-09-26T02:05:10.334Z,59.44
2022-09-26T02:05:54.983Z,59.86
2022-09-26T02:06:50.526Z,59.66
2022-09-26T02:07:46.090Z,59.66
2022-09-26T02:08:41.655Z,59.27
2022-09-26T02:09:37.196Z,59.47
2022-09-26T02:10:32.740Z,59.83
2022-09-26T02:11:17.411Z,59.36
2022-09-26T02:12:12.957Z,59.27
2022-09-26T02:13:08.523Z,59.36
2022-09-26T02:14:04.066Z,59.27
2022-09-26T02:14:48.729Z,59.56
2022-09-26T02:15:44.273Z,59.36
2022-09-26T02:16:39.859Z,59.34
2022-09-26T02:17:35.368Z,59.23
2022-09-26T02:18:30.912Z,59.53
2022-09-26T02:19:26.547Z,59.36
2022-09-26T02:20:22.111Z,59.36
2022-09-26T02:21:17.645Z,59.36
2022-09-26T02:22:13.192Z,59.66
2022-09-26T02:23:08.748Z,59.36
2022-09-26T02:24:04.306Z,59.47
2022-09-26T02:24:59.844Z,59.47
2022-09-26T02:25:55.387Z,59.47
2022-09-26T02:26:50.939Z,59.83
2022-09-26T02:27:46.478Z,59.66
2022-09-26T02:28:42.029Z,59.56
2022-09-26T02:29:37.562Z,59.56
2022-09-26T02:30:22.230Z,59.06
2022-09-26T02:31:17.769Z,59.56
2022-09-26T02:32:02.488Z,59.74
2022-09-26T02:32:57.988Z,59.47
2022-09-26T02:33:53.546Z,59.66
2022-09-26T02:34:49.099Z,59.27
2022-09-26T02:35:44.656Z,59.36
2022-09-26T02:36:40.185Z,59.47
2022-09-26T02:37:24.848Z,59.27
2022-09-26T02:38:20.393Z,59.56
2022-09-26T02:39:05.219Z,59.47
2022-09-26T02:40:00.644Z,59.56
2022-09-26T02:40:56.241Z,59.36
2022-09-26T02:41:51.727Z,59.66
2022-09-26T02:42:47.267Z,59.66
2022-09-26T02:43:42.818Z,59.47
2022-09-26T02:44:38.379Z,59.77
2022-09-26T02:45:34.010Z,59.17
2022-09-26T02:46:29.474Z,59.56
2022-09-26T02:47:25.012Z,59.86
2022-09-26T02:48:20.567Z,59.36
2022-09-26T02:49:16.102Z,59.56
2022-09-26T02:50:00.775Z,59.27
2022-09-26T02:50:56.331Z,59.47
2022-09-26T02:51:51.851Z,59.77
2022-09-26T02:52:47.388Z,59.17
2022-09-26T02:53:42.925Z,59.66
2022-09-26T02:54:38.471Z,59.56
2022-09-26T02:55:34.034Z,59.47
2022-09-26T02:56:29.572Z,59.86
2022-09-26T02:57:25.130Z,59.86
2022-09-26T02:58:20.672Z,59.56
2022-09-26T02:59:16.221Z,59.56
2022-09-26T03:00:11.772Z,59.97
2022-09-26T03:01:07.355Z,59.66
2022-09-26T03:02:02.886Z,59.66
2022-09-26T03:02:58.426Z,59.66
2022-09-26T03:03:53.988Z,59.36
2022-09-26T03:04:49.581Z,59.47
2022-09-26T03:05:34.188Z,59.47
2022-09-26T03:06:29.769Z,59.66
2022-09-26T03:07:25.285Z,59.77
2022-09-26T03:08:20.853Z,59.66
2022-09-26T03:09:16.396Z,59.36
2022-09-26T03:10:01.056Z,59.47
2022-09-26T03:10:56.621Z,59.47
2022-09-26T03:11:52.169Z,59.47
2022-09-26T03:12:47.715Z,59.66
2022-09-26T03:13:43.251Z,59.66
2022-09-26T03:14:38.806Z,59.56
2022-09-26T03:15:34.345Z,59.77
2022-09-26T03:16:29.952Z,59.66
2022-09-26T03:17:25.453Z,59.77
2022-09-26T03:18:21.006Z,59.56
2022-09-26T03:19:05.800Z,59.27
2022-09-26T03:20:01.221Z,59.66
2022-09-26T03:20:56.771Z,59.47
2022-09-26T03:21:52.331Z,59.77
2022-09-26T03:22:47.857Z,59.77
2022-09-26T03:23:43.401Z,59.47
2022-09-26T03:24:38.956Z,59.66
2022-09-26T03:25:23.626Z,59.77
2022-09-26T03:26:19.165Z,59.56
2022-09-26T03:27:14.722Z,59.86
2022-09-26T03:27:59.395Z,59.66
2022-09-26T03:28:54.929Z,59.47
2022-09-26T03:29:39.596Z,59.56
2022-09-26T03:30:24.277Z,59.66
2022-09-26T03:31:19.875Z,59.77
2022-09-26T03:32:15.471Z,59.56
2022-09-26T03:33:10.943Z,59.77
2022-09-26T03:34:06.503Z,59.27
2022-09-26T03:35:02.060Z,59.47
2022-09-26T03:35:57.604Z,59.56
2022-09-26T03:36:42.277Z,59.56
2022-09-26T03:37:38.856Z,59.56
2022-09-26T03:38:34.966Z,59.36
2022-09-26T03:39:30.510Z,59.27
2022-09-26T03:40:26.121Z,58.67
2022-09-26T03:41:21.616Z,58.97
2022-09-26T03:42:17.168Z,58.97
2022-09-26T03:43:12.718Z,58.97
2022-09-26T03:44:08.264Z,59.06
2022-09-26T03:45:03.807Z,58.97
2022-09-26T03:45:59.377Z,58.97
2022-09-26T03:46:54.944Z,58.86
2022-09-26T03:47:39.613Z,59.17
2022-09-26T03:48:35.161Z,59.06
2022-09-26T03:49:30.707Z,59.27
2022-09-26T03:50:26.240Z,59.27
2022-09-26T03:51:21.781Z,59.06
2022-09-26T03:52:17.336Z,59.06
2022-09-26T03:53:02.110Z,59.17
2022-09-26T03:53:57.538Z,59.06
2022-09-26T03:54:53.090Z,58.97
2022-09-26T03:55:37.765Z,59.23
2022-09-26T03:56:33.321Z,59.06
2022-09-26T03:57:28.871Z,59.14
2022-09-26T03:58:24.421Z,59.27
2022-09-26T03:59:19.966Z,58.97
2022-09-26T04:00:04.644Z,59.27
2022-09-26T04:01:00.267Z,59.27
2022-09-26T04:01:55.781Z,59.27
2022-09-26T04:02:51.303Z,59.27
2022-09-26T04:03:50.616Z,59.17
2022-09-26T04:04:31.558Z,59.17
2022-09-26T04:05:16.236Z,59.14
2022-09-26T04:06:11.777Z,58.94
2022-09-26T04:06:56.449Z,59.27
2022-09-26T04:07:51.994Z,58.86
2022-09-26T04:08:47.565Z,58.86
2022-09-26T04:09:43.097Z,58.94
2022-09-26T04:10:27.795Z,59.06
2022-09-26T04:11:23.344Z,59.14
2022-09-26T04:12:18.895Z,59.04
2022-09-26T04:13:33.710Z,59.06
2022-09-26T04:14:10.005Z,58.94
2022-09-26T04:15:05.568Z,59.04
2022-09-26T04:16:01.175Z,58.94
2022-09-26T04:16:45.871Z,59.27
2022-09-26T04:17:41.325Z,59.04
2022-09-26T04:18:36.874Z,59.17
2022-09-26T04:19:32.427Z,58.84
2022-09-26T04:20:27.976Z,59.17
2022-09-26T04:21:23.520Z,59.23
2022-09-26T04:22:19.061Z,58.84
2022-09-26T04:23:14.607Z,59.23
2022-09-26T04:24:10.168Z,58.84
2022-09-26T04:25:05.699Z,59.14
2022-09-26T04:26:01.233Z,59.04
2022-09-26T04:26:56.772Z,59.14
2022-09-26T04:27:52.318Z,59.04
2022-09-26T04:28:47.864Z,59.14
2022-09-26T04:29:43.466Z,58.84
2022-09-26T04:30:39.018Z,58.84
2022-09-26T04:31:34.617Z,59.53
2022-09-26T04:32:30.117Z,59.34
2022-09-26T04:33:25.668Z,59.44
2022-09-26T04:34:26.249Z,59.64
2022-09-26T04:35:16.767Z,59.14
2022-09-26T04:36:12.323Z,59.23
2022-09-26T04:37:07.864Z,59.34
2022-09-26T04:37:52.545Z,59.53
2022-09-26T04:38:48.120Z,59.64
2022-09-26T04:39:43.678Z,59.04
2022-09-26T04:40:42.714Z,58.84
2022-09-26T04:41:23.883Z,59.64
2022-09-26T04:42:19.425Z,59.23
2022-09-26T04:43:14.987Z,59.23
2022-09-26T04:44:10.532Z,58.84
2022-09-26T04:45:06.074Z,59.14
2022-09-26T04:46:01.708Z,59.23
2022-09-26T04:46:57.165Z,58.94
2022-09-26T04:47:52.702Z,58.94
2022-09-26T04:48:48.246Z,58.84
2022-09-26T04:49:32.911Z,59.23
2022-09-26T04:50:28.459Z,58.73
2022-09-26T04:51:24.040Z,59.23
2022-09-26T04:52:19.577Z,59.14
2022-09-26T04:53:15.130Z,59.14
2022-09-26T04:54:10.674Z,59.14
2022-09-26T04:55:06.247Z,58.94
2022-09-26T04:56:01.774Z,58.94
2022-09-26T04:56:57.328Z,58.64
2022-09-26T04:57:52.868Z,58.84
2022-09-26T04:58:48.413Z,58.84
2022-09-26T04:59:43.972Z,58.64
2022-09-26T05:00:39.613Z,58.54
2022-09-26T05:01:35.206Z,58.73
2022-09-26T05:02:30.698Z,52.12
2022-09-26T05:03:26.193Z,55.70
2022-09-26T05:04:26.665Z,60.01
2022-09-26T05:05:17.274Z,59.58
2022-09-26T05:06:12.818Z,59.65
2022-09-26T05:07:08.365Z,59.22
2022-09-26T05:08:03.923Z,58.52
2022-09-26T05:08:59.500Z,58.82
2022-09-26T05:09:55.045Z,58.80
2022-09-26T05:10:50.727Z,57.69
2022-09-26T05:11:46.141Z,58.19
2022-09-26T05:12:41.701Z,57.76
2022-09-26T05:13:37.255Z,58.06
2022-09-26T05:14:32.832Z,58.09
2022-09-26T05:15:28.381Z,58.00
2022-09-26T05:16:24.145Z,57.79
2022-09-26T05:17:19.460Z,58.26
2022-09-26T05:18:04.136Z,58.37
2022-09-26T05:18:59.684Z,57.46
2022-09-26T05:19:55.221Z,57.76
2022-09-26T05:20:50.777Z,58.06
2022-09-26T05:21:46.325Z,58.06
2022-09-26T05:22:41.866Z,58.06
2022-09-26T05:23:42.157Z,57.97
2022-09-26T05:24:32.968Z,57.67
2022-09-26T05:25:17.640Z,57.46
2022-09-26T05:26:13.219Z,57.87
2022-09-26T05:27:08.745Z,57.76
2022-09-26T05:28:04.289Z,57.26
2022-09-26T05:29:02.824Z,57.46
2022-09-26T05:29:55.413Z,57.46
2022-09-26T05:30:50.959Z,57.76
2022-09-26T05:31:46.627Z,57.26
2022-09-26T05:32:42.070Z,57.44
2022-09-26T05:33:37.626Z,57.37
2022-09-26T05:34:33.174Z,57.64
2022-09-26T05:35:28.719Z,58.14
2022-09-26T05:36:13.375Z,56.84
2022-09-26T05:37:08.951Z,57.46
2022-09-26T05:38:04.500Z,57.44
2022-09-26T05:39:00.041Z,58.14
2022-09-26T05:39:55.605Z,57.46
2022-09-26T05:40:51.271Z,58.14
2022-09-26T05:41:46.764Z,57.84
2022-09-26T05:42:42.304Z,57.46
2022-09-26T05:43:37.851Z,57.64
2022-09-26T05:44:33.400Z,57.26
2022-09-26T05:45:18.067Z,57.84
2022-09-26T05:46:13.637Z,57.34
2022-09-26T05:47:09.317Z,57.64
2022-09-26T05:48:04.700Z,57.87
2022-09-26T05:49:00.239Z,57.37
2022-09-26T05:49:55.771Z,57.34
2022-09-26T05:50:51.310Z,57.24
2022-09-26T05:51:46.855Z,57.84
2022-09-26T05:52:42.400Z,57.64
2022-09-26T05:53:37.946Z,57.76
2022-09-26T05:54:33.490Z,57.93
2022-09-26T05:55:29.030Z,57.93
2022-09-26T05:56:24.567Z,57.84
2022-09-26T05:57:20.149Z,57.24
2022-09-26T05:58:15.686Z,57.64
2022-09-26T05:59:11.229Z,57.24
2022-09-26T06:00:06.785Z,57.93
2022-09-26T06:01:02.381Z,57.34
2022-09-26T06:01:58.070Z,57.93
2022-09-26T06:02:53.419Z,57.34
2022-09-26T06:03:48.967Z,57.14
2022-09-26T06:04:44.509Z,57.93
2022-09-26T06:05:40.052Z,57.64
2022-09-26T06:06:35.602Z,57.64
2022-09-26T06:07:31.135Z,57.84
2022-09-26T06:08:26.681Z,56.94
2022-09-26T06:09:22.220Z,58.04
2022-09-26T06:10:17.769Z,56.94
2022-09-26T06:11:13.311Z,58.14
2022-09-26T06:12:08.857Z,57.93
2022-09-26T06:13:04.428Z,57.44
2022-09-26T06:13:59.948Z,57.84
2022-09-26T06:14:55.484Z,58.04
2022-09-26T06:15:51.074Z,57.54
2022-09-26T06:16:35.791Z,57.34
2022-09-26T06:17:31.273Z,58.24
2022-09-26T06:18:26.827Z,57.24
2022-09-26T06:19:23.244Z,57.44
2022-09-26T06:20:17.913Z,57.34
2022-09-26T06:21:02.592Z,57.44
2022-09-26T06:21:58.144Z,57.74
2022-09-26T06:22:53.680Z,57.93
2022-09-26T06:23:49.234Z,58.04
2022-09-26T06:24:44.785Z,57.74
2022-09-26T06:25:40.328Z,57.74
2022-09-26T06:26:35.867Z,57.93
2022-09-26T06:27:31.413Z,58.04
2022-09-26T06:28:26.981Z,57.41
2022-09-26T06:29:22.513Z,57.44
2022-09-26T06:30:18.058Z,57.74
2022-09-26T06:31:13.673Z,58.21
2022-09-26T06:32:09.244Z,57.51
2022-09-26T06:33:04.681Z,57.41
2022-09-26T06:34:00.225Z,58.01
2022-09-26T06:34:55.769Z,57.31
2022-09-26T06:35:51.317Z,57.81
2022-09-26T06:36:46.889Z,57.31
2022-09-26T06:37:42.400Z,58.11
2022-09-26T06:38:37.945Z,57.91
2022-09-26T06:39:33.481Z,57.64
2022-09-26T06:40:29.128Z,57.71
2022-09-26T06:41:25.154Z,57.51
2022-09-26T06:42:20.693Z,58.01
2022-09-26T06:43:16.247Z,57.81
2022-09-26T06:44:11.802Z,57.61
2022-09-26T06:44:56.449Z,57.91
2022-09-26T06:45:51.990Z,57.71
2022-09-26T06:46:47.616Z,57.91
2022-09-26T06:47:43.074Z,57.24
2022-09-26T06:48:38.615Z,57.34
2022-09-26T06:49:34.179Z,57.34
2022-09-26T06:50:29.735Z,58.04
2022-09-26T06:51:25.779Z,57.31
2022-09-26T06:52:21.335Z,58.14
2022-09-26T06:53:17.908Z,57.84
2022-09-26T06:54:13.472Z,57.61
2022-09-26T06:55:09.001Z,58.31
2022-09-26T06:56:04.561Z,57.41
2022-09-26T06:57:00.090Z,57.31
2022-09-26T06:57:55.628Z,57.31
2022-09-26T06:58:51.178Z,57.81
2022-09-26T06:59:46.744Z,57.44
2022-09-26T07:00:42.380Z,57.51
2022-09-26T07:01:37.915Z,57.51
2022-09-26T07:02:33.364Z,58.01
2022-09-26T07:03:28.905Z,57.41
2022-09-26T07:04:24.448Z,57.91
2022-09-26T07:05:19.998Z,58.11
2022-09-26T07:06:15.548Z,57.51
2022-09-26T07:07:11.167Z,58.01
2022-09-26T07:07:55.828Z,57.71
2022-09-26T07:09:02.027Z,57.71
2022-09-26T07:09:46.925Z,57.91
2022-09-26T07:10:42.465Z,58.11
2022-09-26T07:11:56.603Z,57.81
2022-09-26T07:12:33.569Z,57.81
2022-09-26T07:13:18.233Z,57.61
2022-09-26T07:14:13.780Z,57.81
2022-09-26T07:15:09.352Z,57.81
2022-09-26T07:16:04.956Z,57.71
2022-09-26T07:17:00.420Z,57.91
2022-09-26T07:17:55.958Z,57.81
2022-09-26T07:18:51.499Z,57.71
2022-09-26T07:19:36.171Z,57.71
2022-09-26T07:20:31.718Z,57.81
2022-09-26T07:21:27.272Z,57.71
2022-09-26T07:22:22.842Z,57.71
2022-09-26T07:23:18.376Z,58.01
2022-09-26T07:24:13.923Z,57.81
2022-09-26T07:25:09.468Z,57.71
2022-09-26T07:26:05.009Z,58.01
2022-09-26T07:27:00.549Z,58.61
2022-09-26T07:27:56.098Z,58.01
2022-09-26T07:28:54.718Z,57.91
2022-09-26T07:29:47.198Z,57.31
2022-09-26T07:30:42.916Z,57.51
2022-09-26T07:31:38.357Z,57.71
2022-09-26T07:32:33.850Z,57.71
2022-09-26T07:33:29.409Z,57.51
2022-09-26T07:34:25.141Z,57.51
2022-09-26T07:35:20.513Z,57.31
2022-09-26T07:36:16.061Z,57.71
2022-09-26T07:37:11.603Z,57.81
2022-09-26T07:38:07.150Z,57.41
2022-09-26T07:39:02.705Z,57.51
2022-09-26T07:40:01.575Z,58.21
2022-09-26T07:40:53.887Z,57.51
2022-09-26T07:41:49.358Z,57.31
2022-09-26T07:42:58.419Z,57.51
2022-09-26T07:44:30.343Z,58.11
2022-09-26T07:45:31.792Z,58.01
2022-09-26T07:46:27.143Z,57.58
2022-09-26T07:47:22.618Z,57.98
2022-09-26T07:48:18.187Z,57.18
2022-09-26T07:49:13.758Z,57.68
2022-09-26T07:50:09.312Z,57.18
2022-09-26T07:51:09.141Z,57.39
2022-09-26T07:52:00.408Z,57.18
2022-09-26T07:52:55.969Z,57.39
2022-09-26T07:53:51.511Z,56.79
2022-09-26T07:54:47.049Z,57.18
2022-09-26T07:55:42.613Z,56.88
2022-09-26T07:56:38.159Z,57.68
2022-09-26T07:57:33.694Z,57.68
2022-09-26T07:58:29.231Z,57.31
2022-09-26T07:59:24.790Z,57.58
2022-09-26T08:00:20.338Z,57.28
2022-09-26T08:01:15.970Z,57.58
2022-09-26T08:02:11.600Z,57.91
2022-09-26T08:03:07.085Z,57.88
2022-09-26T08:04:02.585Z,57.28
2022-09-26T08:05:01.027Z,57.28
2022-09-26T08:05:53.675Z,57.31
2022-09-26T08:06:49.221Z,57.01
2022-09-26T08:07:44.764Z,57.21
2022-09-26T08:08:40.330Z,57.48
2022-09-26T08:09:35.879Z,57.98
2022-09-26T08:10:31.421Z,57.39
2022-09-26T08:11:26.956Z,57.39
2022-09-26T08:12:22.503Z,56.98
2022-09-26T08:13:18.037Z,57.18
2022-09-26T08:14:02.753Z,57.09
2022-09-26T08:14:58.301Z,56.98
2022-09-26T08:15:53.921Z,56.68
2022-09-26T08:16:49.398Z,57.28
2022-09-26T08:17:44.958Z,56.88
2022-09-26T08:18:40.487Z,56.98
2022-09-26T08:19:36.041Z,56.85
2022-09-26T08:20:32.447Z,56.88
2022-09-26T08:21:27.131Z,57.06
2022-09-26T08:22:22.684Z,57.09
2022-09-26T08:23:18.224Z,57.09
2022-09-26T08:24:13.839Z,57.18
2022-09-26T08:25:09.310Z,56.79
2022-09-26T08:26:04.863Z,56.68
2022-09-26T08:27:00.389Z,56.59
2022-09-26T08:27:55.932Z,57.09
2022-09-26T08:28:51.488Z,56.79
2022-09-26T08:29:36.184Z,56.98
2022-09-26T08:30:31.740Z,56.98
2022-09-26T08:31:27.327Z,56.79
2022-09-26T08:32:22.841Z,57.56
2022-09-26T08:33:18.395Z,56.79
2022-09-26T08:34:14.130Z,57.46
2022-09-26T08:35:09.486Z,57.15
2022-09-26T08:35:54.156Z,57.35
2022-09-26T08:36:49.751Z,56.76
2022-09-26T08:37:45.292Z,56.79
2022-09-26T08:38:40.838Z,56.96
2022-09-26T08:39:36.381Z,57.35
2022-09-26T08:40:21.240Z,57.06
2022-09-26T08:41:17.183Z,56.76
2022-09-26T08:42:12.736Z,57.06
2022-09-26T08:43:08.281Z,56.26
2022-09-26T08:44:03.824Z,56.85
2022-09-26T08:44:59.359Z,57.06
2022-09-26T08:45:54.916Z,56.68
2022-09-26T08:46:50.584Z,57.15
2022-09-26T08:47:46.029Z,56.85
2022-09-26T08:48:41.629Z,55.96
2022-09-26T08:49:37.128Z,56.36
2022-09-26T08:50:33.262Z,56.36
2022-09-26T08:51:29.500Z,56.85
2022-09-26T08:52:24.338Z,56.46
2022-09-26T08:53:19.882Z,56.36
2022-09-26T08:54:15.636Z,56.46
2022-09-26T08:55:10.961Z,56.85
2022-09-26T08:56:06.499Z,56.59
2022-09-26T08:57:02.043Z,56.96
2022-09-26T08:57:57.580Z,56.79
2022-09-26T08:58:53.141Z,56.96
2022-09-26T08:59:48.681Z,57.15
2022-09-26T09:00:44.221Z,56.98
2022-09-26T09:01:39.934Z,56.88
2022-09-26T09:02:35.454Z,56.79
2022-09-26T09:03:30.842Z,56.76
2022-09-26T09:04:26.401Z,56.26
2022-09-26T09:05:21.923Z,56.46
2022-09-26T09:06:17.466Z,56.36
2022-09-26T09:07:13.011Z,56.46
2022-09-26T09:08:08.561Z,56.26
2022-09-26T09:09:04.097Z,56.36
2022-09-26T09:09:59.644Z,55.96
2022-09-26T09:10:55.209Z,56.96
2022-09-26T09:11:39.872Z,56.96
2022-09-26T09:12:35.410Z,56.85
2022-09-26T09:13:30.959Z,56.88
2022-09-26T09:14:26.492Z,56.98
2022-09-26T09:15:25.597Z,56.79
2022-09-26T09:16:17.681Z,57.48
2022-09-26T09:17:13.153Z,57.09
2022-09-26T09:18:13.237Z,56.76
2022-09-26T09:19:04.263Z,56.16
2022-09-26T09:19:59.879Z,56.46
2022-09-26T09:20:44.528Z,56.76
2022-09-26T09:21:41.983Z,56.66
2022-09-26T09:22:35.602Z,56.26
2022-09-26T09:23:31.139Z,56.26
2022-09-26T09:24:26.677Z,56.26
2022-09-26T09:25:22.248Z,56.26
2022-09-26T09:28:09.034Z,55.63
2022-09-26T09:29:04.635Z,55.63
2022-09-26T09:29:59.948Z,55.63
2022-09-26T09:30:55.568Z,56.53
2022-09-26T09:31:51.044Z,56.53
2022-09-26T09:32:46.596Z,55.96
2022-09-26T09:33:42.151Z,56.03
2022-09-26T09:34:37.697Z,55.93
2022-09-26T09:35:33.262Z,55.63
2022-09-26T09:36:28.797Z,56.23
2022-09-26T09:37:24.345Z,56.03
2022-09-26T09:38:19.888Z,55.86
2022-09-26T09:39:15.430Z,56.06
2022-09-26T09:40:11.023Z,55.06
2022-09-26T09:41:06.603Z,54.16
2022-09-26T09:42:02.096Z,53.96
2022-09-26T09:42:57.674Z,53.47
2022-09-26T09:43:53.216Z,47.98
2022-09-26T09:44:48.751Z,50.60
2022-09-26T09:45:44.300Z,47.42
2022-09-26T09:46:39.914Z,49.95
2022-09-26T09:47:35.406Z,47.75
2022-09-26T09:48:30.951Z,52.17
2022-09-26T09:49:26.501Z,53.64
2022-09-26T09:50:22.047Z,54.04
2022-09-26T09:51:17.612Z,53.72
2022-09-26T09:52:13.119Z,53.19
2022-09-26T09:53:08.669Z,53.79
2022-09-26T09:54:04.219Z,53.27
2022-09-26T09:54:59.761Z,53.17
2022-09-26T09:55:55.309Z,53.27
2022-09-26T09:56:50.868Z,53.47
2022-09-26T09:57:46.422Z,53.06
2022-09-26T09:58:41.995Z,54.16
2022-09-26T09:59:37.534Z,53.77
2022-09-26T10:00:33.071Z,53.66
2022-09-26T10:01:28.614Z,53.64
2022-09-26T10:02:24.261Z,53.54
2022-09-26T10:03:19.781Z,53.54
2022-09-26T10:04:15.447Z,54.14
2022-09-26T10:05:10.793Z,54.06
2022-09-26T10:06:08.587Z,54.66
2022-09-26T10:07:01.929Z,54.14
2022-09-26T10:07:57.433Z,54.14
2022-09-26T10:08:52.980Z,53.84
2022-09-26T10:09:48.534Z,53.94
2022-09-26T10:10:44.080Z,53.84
2022-09-26T10:11:39.627Z,54.44
2022-09-26T10:12:35.174Z,54.34
2022-09-26T10:13:30.721Z,53.94
2022-09-26T10:14:15.610Z,54.01
2022-09-26T10:15:10.935Z,54.01
2022-09-26T10:16:06.538Z,53.52
2022-09-26T10:20:42.391Z,53.91
2022-09-26T10:21:37.946Z,54.01
2022-09-26T10:22:33.507Z,53.71
2022-09-26T10:23:29.027Z,54.31
2022-09-26T10:24:24.564Z,54.61
2022-09-26T10:25:20.106Z,54.41
2022-09-26T10:26:15.644Z,54.64
2022-09-26T10:27:11.226Z,54.94
2022-09-26T10:28:06.748Z,54.94
2022-09-26T10:29:02.291Z,54.74
2022-09-26T10:29:57.834Z,54.83
2022-09-26T10:30:54.009Z,55.43
2022-09-26T10:31:49.583Z,55.26
2022-09-26T10:32:45.062Z,55.26
2022-09-26T10:33:40.617Z,55.56
2022-09-26T10:34:36.153Z,55.56
2022-09-26T10:35:31.698Z,55.56
2022-09-26T10:36:27.243Z,55.56
2022-09-26T10:37:22.788Z,55.26
2022-09-26T10:38:18.356Z,54.96
2022-09-26T10:39:13.888Z,55.26
2022-09-26T10:40:09.435Z,55.16
2022-09-26T10:41:05.059Z,55.66
2022-09-26T10:42:00.522Z,55.56
2022-09-26T10:42:56.062Z,55.66
2022-09-26T10:43:51.612Z,55.86
2022-09-26T10:44:47.150Z,56.26
2022-09-26T10:45:42.687Z,55.86
2022-09-26T10:46:38.326Z,56.06
2022-09-26T10:47:33.792Z,55.96
2022-09-26T10:48:29.340Z,56.06
2022-09-26T10:49:24.886Z,55.99
2022-09-26T10:50:20.438Z,55.76
2022-09-26T10:51:15.998Z,55.76
2022-09-26T10:52:16.093Z,55.88
2022-09-26T10:53:07.087Z,55.86
2022-09-26T10:54:02.656Z,55.46
2022-09-26T10:54:58.180Z,55.49
2022-09-26T10:55:53.736Z,55.88
2022-09-26T10:56:49.287Z,56.09
2022-09-26T10:57:44.829Z,56.29
2022-09-26T10:58:40.372Z,56.59
2022-09-26T10:59:35.913Z,55.79
2022-09-26T11:00:31.447Z,55.99
2022-09-26T11:01:27.008Z,56.18
2022-09-26T11:02:22.529Z,56.09
2022-09-26T11:03:07.284Z,55.88
2022-09-26T11:04:02.773Z,56.09
2022-09-26T11:04:58.288Z,56.09
2022-09-26T11:05:53.853Z,55.88
2022-09-26T11:06:49.402Z,56.38
2022-09-26T11:07:44.943Z,56.48
2022-09-26T11:08:40.508Z,56.18
2022-09-26T11:09:36.661Z,56.29
2022-09-26T11:10:32.182Z,56.18
2022-09-26T11:11:27.717Z,56.48
2022-09-26T11:12:23.257Z,56.18
2022-09-26T11:13:07.935Z,56.98
2022-09-26T11:14:03.619Z,56.29
2022-09-26T11:14:59.079Z,56.79
2022-09-26T11:15:54.707Z,56.29
2022-09-26T11:16:50.129Z,56.29
2022-09-26T11:17:45.678Z,56.59
2022-09-26T11:18:41.218Z,56.59
2022-09-26T11:19:36.764Z,56.18
2022-09-26T11:20:21.450Z,56.41
2022-09-26T11:21:28.416Z,56.88
2022-09-26T11:22:12.545Z,56.79
2022-09-26T11:23:08.095Z,56.48
2022-09-26T11:25:35.954Z,56.29
2022-09-26T11:26:31.313Z,56.59
2022-09-26T11:27:26.848Z,56.96
2022-09-26T11:31:47.652Z,55.56
2022-09-26T11:34:25.824Z,55.86
2022-09-26T11:35:21.356Z,55.66
2022-09-26T11:36:16.907Z,56.13
2022-09-26T11:37:12.454Z,56.33
2022-09-26T11:38:07.990Z,55.21
2022-09-26T11:39:03.527Z,54.81
2022-09-26T11:39:59.079Z,55.43
2022-09-26T11:40:54.720Z,55.11
2022-09-26T11:41:50.165Z,55.93
2022-09-26T11:42:45.736Z,55.86
2022-09-26T11:43:30.378Z,56.46
2022-09-26T11:44:25.910Z,55.66
2022-09-26T11:45:21.456Z,55.66
2022-09-26T11:46:17.098Z,56.16
2022-09-26T11:47:12.585Z,56.16
2022-09-26T11:48:08.119Z,55.99
2022-09-26T11:49:03.658Z,56.88
2022-09-26T11:49:59.222Z,56.38
2022-09-26T11:50:54.749Z,56.38
2022-09-26T11:51:39.426Z,56.38
2022-09-26T11:52:35.024Z,56.59
2022-09-26T11:53:30.565Z,56.59
2022-09-26T11:54:26.129Z,56.38
2022-09-26T11:55:21.652Z,56.09
2022-09-26T11:56:17.209Z,56.29